Time;durP1;ratioP1;P1;durP2;ratioP2;P2;SDS_P1;SDS_P2;PMS_P1;PMS_P2;Temp;Humidity;BMP_temperature;BMP_pressure;BME280_temperature;BME280_humidity;BME280_pressure;Samples;Min_cycle;Max_cycle;Signal;HPM_P1;HPM_P2
2021/06/28 00:01:16;;;;;;;9.75;5.72;;;21.10;99.90;;;;;;5018935;28;20364;-70
2021/06/28 00:03:42;;;;;;;10.80;6.55;;;21.20;99.90;;;;;;5001629;28;20483;-70
2021/06/28 00:06:08;;;;;;;11.65;6.35;;;21.20;99.90;;;;;;5001190;28;20050;-70
2021/06/28 00:08:37;;;;;;;10.75;6.40;;;21.10;99.90;;;;;;5018850;28;20034;-69
2021/06/28 00:11:08;;;;;;;12.30;6.28;;;21.10;99.90;;;;;;5001579;28;20434;-70
2021/06/28 00:13:39;;;;;;;9.98;6.35;;;21.20;99.90;;;;;;5018707;28;20041;-69
2021/06/28 00:16:05;;;;;;;7.97;5.70;;;21.10;99.90;;;;;;5018781;28;20038;-70
2021/06/28 00:18:32;;;;;;;8.68;5.50;;;21.00;99.90;;;;;;5001456;28;20044;-70
2021/06/28 00:20:58;;;;;;;13.73;6.57;;;20.60;99.90;;;;;;5001075;28;20511;-69
2021/06/28 00:23:24;;;;;;;12.73;7.07;;;20.20;99.90;;;;;;5017593;28;20029;-70
2021/06/28 00:25:50;;;;;;;9.43;6.70;;;20.20;99.90;;;;;;5018685;28;20030;-70
2021/06/28 00:28:16;;;;;;;10.15;6.60;;;20.30;99.90;;;;;;5018555;28;20032;-71
2021/06/28 00:30:44;;;;;;;9.60;5.90;;;20.40;99.90;;;;;;5001310;28;20049;-71
2021/06/28 00:33:14;;;;;;;8.93;5.88;;;20.40;99.90;;;;;;5001062;28;20040;-71
2021/06/28 00:35:42;;;;;;;8.93;6.35;;;20.40;99.90;;;;;;5018736;28;20088;-71
2021/06/28 00:38:09;;;;;;;11.27;6.10;;;20.50;99.90;;;;;;5000822;28;20048;-70
2021/06/28 00:40:36;;;;;;;12.20;6.38;;;20.40;99.90;;;;;;5001056;28;20030;-71
2021/06/28 00:43:03;;;;;;;11.88;6.20;;;20.50;99.90;;;;;;5018648;28;20033;-71
2021/06/28 00:45:33;;;;;;;9.13;5.90;;;20.50;99.90;;;;;;5001155;28;20038;-71
2021/06/28 00:48:07;;;;;;;8.07;6.00;;;20.50;99.90;;;;;;5001663;28;20055;-69
2021/06/28 00:50:37;;;;;;;11.52;6.07;;;20.40;99.90;;;;;;5018515;28;20026;-70
2021/06/28 00:53:12;;;;;;;10.27;6.20;;;20.40;99.90;;;;;;5000998;28;20074;-70
2021/06/28 00:55:41;;;;;;;9.68;5.53;;;20.40;99.90;;;;;;5018655;28;20057;-71
2021/06/28 00:58:08;;;;;;;9.57;5.72;;;20.50;99.90;;;;;;5015380;28;20041;-70
2021/06/28 01:00:34;;;;;;;7.95;5.88;;;20.40;99.90;;;;;;4997705;28;20436;-72
2021/06/28 01:03:00;;;;;;;12.95;5.95;;;20.40;99.90;;;;;;5015225;28;20044;-69
2021/06/28 01:05:32;;;;;;;9.18;5.90;;;20.40;99.90;;;;;;4981288;28;20372;-73
2021/06/28 01:08:00;;;;;;;10.88;6.00;;;20.40;99.90;;;;;;5015366;28;20117;-73
2021/06/28 01:10:26;;;;;;;12.30;5.82;;;20.30;99.90;;;;;;5015206;28;20037;-74
2021/06/28 01:12:53;;;;;;;9.63;5.47;;;20.30;99.90;;;;;;5015147;28;20057;-73
2021/06/28 01:15:20;;;;;;;10.00;5.70;;;20.20;99.90;;;;;;5015102;28;20041;-73
2021/06/28 01:17:46;;;;;;;11.55;6.45;;;20.20;99.90;;;;;;5014893;28;20117;-74
2021/06/28 01:20:26;;;;;;;9.32;6.22;;;20.20;99.90;;;;;;5014825;28;20383;-73
2021/06/28 01:23:07;;;;;;;10.00;6.30;;;20.20;99.90;;;;;;5014984;28;20479;-75
2021/06/28 01:25:33;;;;;;;12.05;6.28;;;20.20;99.90;;;;;;4999165;28;20088;-74
2021/06/28 01:27:59;;;;;;;8.95;5.47;;;20.30;99.90;;;;;;4997192;28;20040;-75
2021/06/28 01:30:29;;;;;;;10.02;5.63;;;20.30;99.90;;;;;;5014629;28;20042;-74
2021/06/28 01:32:56;;;;;;;12.77;5.95;;;20.30;99.90;;;;;;5014586;28;20029;-74
2021/06/28 01:35:22;;;;;;;8.38;5.50;;;20.30;99.90;;;;;;5014758;28;20038;-74
2021/06/28 01:37:49;;;;;;;8.52;5.63;;;20.30;99.90;;;;;;5014798;28;20034;-74
2021/06/28 01:40:17;;;;;;;7.38;5.72;;;20.30;99.90;;;;;;4997211;28;20030;-74
2021/06/28 01:42:44;;;;;;;8.95;5.60;;;20.30;99.90;;;;;;5014632;28;20116;-74
2021/06/28 01:45:16;;;;;;;11.18;5.55;;;20.30;99.90;;;;;;5014646;28;20076;-74
2021/06/28 01:47:42;;;;;;;10.57;6.55;;;20.30;99.90;;;;;;5014692;28;20030;-74
2021/06/28 01:50:12;;;;;;;8.98;5.95;;;20.20;99.90;;;;;;4996603;28;20049;-74
2021/06/28 01:52:38;;;;;;;9.82;6.10;;;20.20;99.90;;;;;;5014219;28;20096;-74
2021/06/28 01:55:08;;;;;;;11.68;5.63;;;20.10;99.90;;;;;;5012812;28;20026;-74
2021/06/28 01:57:48;;;;;;;6.82;5.32;;;20.10;99.90;;;;;;4997240;28;20034;-74
2021/06/28 02:00:19;;;;;;;6.33;5.23;;;20.20;99.90;;;;;;5013976;28;20066;-74
2021/06/28 02:03:11;;;;;;;8.90;6.07;;;20.30;99.90;;;;;;5014146;28;20594;-74
2021/06/28 02:05:58;;;;;;;9.13;6.00;;;20.30;99.90;;;;;;5013888;28;20042;-74
2021/06/28 02:08:28;;;;;;;11.30;5.95;;;20.30;99.90;;;;;;5014019;28;20475;-75
2021/06/28 02:10:58;;;;;;;8.98;5.90;;;20.20;99.90;;;;;;4996890;28;20030;-74
2021/06/28 02:13:28;;;;;;;9.00;5.75;;;20.20;99.90;;;;;;5013880;28;20033;-73
2021/06/28 02:15:54;;;;;;;10.23;5.90;;;20.20;99.90;;;;;;5014202;28;20026;-75
2021/06/28 02:18:23;;;;;;;10.40;6.20;;;20.20;99.90;;;;;;5013879;28;20471;-74
2021/06/28 02:20:50;;;;;;;7.72;5.95;;;20.30;99.90;;;;;;5013773;28;20026;-74
2021/06/28 02:23:38;;;;;;;11.40;5.95;;;20.20;99.90;;;;;;5013532;28;20594;-74
2021/06/28 02:26:08;;;;;;;12.25;6.30;;;20.20;99.90;;;;;;5013792;28;20546;-74
2021/06/28 02:28:37;;;;;;;9.47;5.63;;;20.20;99.90;;;;;;5013450;28;20471;-74
2021/06/28 02:31:07;;;;;;;12.32;6.63;;;20.20;99.90;;;;;;5013846;28;20033;-75
2021/06/28 02:33:36;;;;;;;9.27;6.25;;;20.20;99.90;;;;;;5013576;28;20053;-75
2021/06/28 02:36:02;;;;;;;8.52;5.85;;;20.20;99.90;;;;;;4996444;28;20048;-75
2021/06/28 02:38:29;;;;;;;11.25;6.45;;;20.20;99.90;;;;;;5013391;28;20482;-74
2021/06/28 02:40:55;;;;;;;8.70;6.40;;;20.20;99.90;;;;;;5013658;28;20044;-74
2021/06/28 02:43:22;;;;;;;8.60;6.50;;;20.30;99.90;;;;;;5013483;28;20037;-74
2021/06/28 02:45:48;;;;;;;11.05;6.50;;;20.40;99.90;;;;;;5013234;28;20531;-74
2021/06/28 02:48:14;;;;;;;8.02;6.00;;;20.30;99.90;;;;;;4995810;28;20065;-74
2021/06/28 02:50:40;;;;;;;10.05;6.45;;;20.30;99.90;;;;;;5013456;28;20022;-74
2021/06/28 02:53:08;;;;;;;11.88;6.32;;;20.40;99.90;;;;;;5013015;28;20034;-74
2021/06/28 02:55:34;;;;;;;12.65;6.20;;;20.40;99.90;;;;;;5013256;28;20040;-74
2021/06/28 02:58:00;;;;;;;10.23;6.47;;;20.40;99.90;;;;;;5013328;28;20026;-74
2021/06/28 03:00:27;;;;;;;10.05;6.72;;;20.30;99.90;;;;;;4995767;28;20058;-75
2021/06/28 03:02:53;;;;;;;12.32;6.63;;;20.30;99.90;;;;;;5013320;28;20034;-73
2021/06/28 03:05:19;;;;;;;9.90;6.32;;;20.30;99.90;;;;;;4959574;28;20038;-74
2021/06/28 03:07:45;;;;;;;9.02;6.50;;;20.30;99.90;;;;;;4993804;28;20034;-75
2021/06/28 03:10:14;;;;;;;11.35;6.65;;;20.40;99.90;;;;;;4993542;28;20031;-74
2021/06/28 03:12:41;;;;;;;7.93;6.32;;;20.30;99.90;;;;;;4991933;28;20460;-75
2021/06/28 03:15:15;;;;;;;10.40;6.80;;;20.30;99.90;;;;;;4992330;28;20072;-75
2021/06/28 03:17:42;;;;;;;7.57;5.82;;;20.40;99.90;;;;;;4993479;28;20098;-75
2021/06/28 03:20:12;;;;;;;10.43;6.57;;;20.40;99.90;;;;;;4992846;28;20038;-74
2021/06/28 03:22:40;;;;;;;10.60;6.10;;;20.40;99.90;;;;;;4992943;28;20034;-74
2021/06/28 03:25:13;;;;;;;11.77;7.03;;;20.30;99.90;;;;;;4993066;28;20045;-74
2021/06/28 03:27:39;;;;;;;10.48;6.78;;;20.30;99.90;;;;;;4992920;28;20483;-74
2021/06/28 03:30:08;;;;;;;12.50;6.32;;;20.40;99.90;;;;;;4993241;28;20038;-74
2021/06/28 03:32:35;;;;;;;12.25;7.00;;;20.40;99.90;;;;;;4993122;28;20391;-74
2021/06/28 03:35:01;;;;;;;11.30;6.68;;;20.40;99.90;;;;;;4991787;28;20038;-74
2021/06/28 03:37:27;;;;;;;12.00;6.50;;;20.40;99.90;;;;;;4993110;28;20027;-75
2021/06/28 03:39:52;;;;;;;11.40;6.53;;;20.50;99.90;;;;;;4993120;28;20030;-75
2021/06/28 03:42:18;;;;;;;8.55;6.28;;;20.50;99.90;;;;;;4993071;28;20121;-74
2021/06/28 03:44:44;;;;;;;8.13;6.43;;;20.50;99.90;;;;;;4991907;28;20375;-75
2021/06/28 03:47:10;;;;;;;11.65;6.65;;;20.40;99.90;;;;;;4992876;28;20030;-74
2021/06/28 03:49:36;;;;;;;9.70;6.43;;;20.40;99.90;;;;;;4992623;28;20545;-74
2021/06/28 03:52:02;;;;;;;11.77;6.95;;;20.30;99.90;;;;;;4992929;28;20031;-73
2021/06/28 03:54:28;;;;;;;9.77;7.32;;;20.30;99.90;;;;;;5007990;28;20042;-73
2021/06/28 03:56:54;;;;;;;9.80;6.95;;;20.20;99.90;;;;;;4991515;28;20023;-74
2021/06/28 03:59:20;;;;;;;14.40;6.90;;;20.30;99.90;;;;;;4992441;28;20406;-74
2021/06/28 04:01:46;;;;;;;10.30;6.88;;;20.30;99.90;;;;;;4992659;28;20120;-74
2021/06/28 04:04:12;;;;;;;8.90;6.43;;;20.40;99.90;;;;;;4997692;28;20034;-76
2021/06/28 04:06:38;;;;;;;10.32;6.30;;;20.40;99.90;;;;;;5017987;28;20060;-75
2021/06/28 04:09:04;;;;;;;8.70;6.35;;;20.50;99.90;;;;;;5030843;28;20115;-75
2021/06/28 04:11:31;;;;;;;8.65;5.47;;;20.60;99.90;;;;;;5031764;28;20026;-75
2021/06/28 04:13:57;;;;;;;11.88;6.10;;;20.60;99.90;;;;;;5031974;28;20033;-73
2021/06/28 04:16:24;;;;;;;9.45;6.18;;;20.60;99.90;;;;;;5028825;28;20108;-74
2021/06/28 04:18:50;;;;;;;10.50;6.28;;;20.70;99.90;;;;;;5032101;28;20044;-76
2021/06/28 04:21:16;;;;;;;9.73;5.93;;;20.70;99.90;;;;;;5031677;28;20034;-75
2021/06/28 04:23:42;;;;;;;8.45;6.10;;;20.80;99.90;;;;;;5031861;28;20030;-75
2021/06/28 04:26:07;;;;;;;7.85;5.60;;;20.80;99.90;;;;;;5031734;28;20159;-75
2021/06/28 04:28:34;;;;;;;8.40;5.95;;;20.70;99.90;;;;;;5031685;28;20390;-74
2021/06/28 04:31:01;;;;;;;8.90;6.18;;;20.70;99.90;;;;;;5031853;28;20033;-74
2021/06/28 04:33:27;;;;;;;9.60;5.72;;;20.60;99.90;;;;;;5031775;28;20083;-74
2021/06/28 04:35:55;;;;;;;12.98;5.72;;;20.60;99.90;;;;;;5035569;28;20079;-74
2021/06/28 04:38:21;;;;;;;7.25;5.35;;;20.70;99.90;;;;;;5015727;28;20487;-78
2021/06/28 04:40:48;;;;;;;8.93;5.50;;;20.80;99.90;;;;;;5015181;28;20044;-80
2021/06/28 04:43:14;;;;;;;6.82;5.28;;;20.80;99.90;;;;;;5015161;28;20033;-80
2021/06/28 04:45:39;;;;;;;8.05;5.72;;;20.80;99.90;;;;;;5014630;28;20034;-79
2021/06/28 04:48:07;;;;;;;7.88;5.25;;;20.80;99.90;;;;;;5015017;28;20033;-78
2021/06/28 04:50:33;;;;;;;9.52;5.68;;;20.90;99.90;;;;;;5015131;28;20037;-78
2021/06/28 04:52:58;;;;;;;8.27;4.88;;;20.90;99.90;;;;;;5015415;28;20057;-80
2021/06/28 04:55:25;;;;;;;7.55;4.97;;;20.90;99.90;;;;;;5015260;28;20048;-76
2021/06/28 04:57:55;;;;;;;7.20;4.55;;;20.90;99.90;;;;;;5015575;28;20034;-76
2021/06/28 05:00:25;;;;;;;7.25;4.78;;;21.00;99.90;;;;;;4997397;28;20403;-77
2021/06/28 05:02:51;;;;;;;12.48;5.45;;;21.10;99.90;;;;;;5015243;28;20028;-77
2021/06/28 05:05:18;;;;;;;7.50;5.22;;;21.20;99.90;;;;;;5014876;28;20042;-76
2021/06/28 05:07:45;;;;;;;8.68;5.32;;;21.30;99.90;;;;;;5012607;28;20172;-76
2021/06/28 05:10:13;;;;;;;5.93;4.38;;;21.50;99.90;;;;;;5017027;28;20541;-76
2021/06/28 05:12:40;;;;;;;8.18;5.05;;;21.70;99.90;;;;;;5034608;28;20067;-78
2021/06/28 05:15:08;;;;;;;8.18;5.47;;;21.70;99.90;;;;;;5017163;28;20087;-77
2021/06/28 05:17:35;;;;;;;8.05;5.18;;;21.80;99.90;;;;;;5016645;28;20057;-76
2021/06/28 05:20:03;;;;;;;7.55;4.88;;;21.90;99.90;;;;;;5034699;28;20109;-74
2021/06/28 05:22:30;;;;;;;9.73;5.68;;;22.00;99.90;;;;;;5017240;28;20037;-74
2021/06/28 05:24:56;;;;;;;9.30;5.72;;;21.90;99.90;;;;;;5034862;28;20061;-74
2021/06/28 05:27:22;;;;;;;11.77;5.75;;;21.80;99.90;;;;;;5034132;28;20037;-75
2021/06/28 05:29:54;;;;;;;7.45;5.35;;;21.70;99.90;;;;;;5034282;28;20083;-69
2021/06/28 05:32:24;;;;;;;8.98;5.38;;;21.70;99.90;;;;;;5034158;28;20029;-70
2021/06/28 05:34:50;;;;;;;6.78;4.65;;;21.90;99.90;;;;;;5016758;28;20040;-76
2021/06/28 05:37:17;;;;;;;9.45;5.35;;;22.00;99.90;;;;;;5034339;28;20030;-71
2021/06/28 05:39:45;;;;;;;6.70;4.93;;;22.00;99.90;;;;;;5033984;28;20108;-69
2021/06/28 05:42:11;;;;;;;6.47;5.22;;;22.00;99.90;;;;;;5019218;28;20368;-71
2021/06/28 05:44:37;;;;;;;10.50;5.30;;;22.00;99.90;;;;;;5014041;28;20487;-73
2021/06/28 05:47:03;;;;;;;9.55;6.40;;;22.00;99.90;;;;;;5008300;28;20052;-71
2021/06/28 05:49:31;;;;;;;10.20;7.70;;;22.00;99.90;;;;;;5022917;28;20042;-70
2021/06/28 05:51:58;;;;;;;12.35;8.65;;;22.10;99.90;;;;;;5013850;28;20162;-71
2021/06/28 05:54:24;;;;;;;12.75;6.75;;;22.10;99.90;;;;;;4996351;28;20057;-71
2021/06/28 05:56:50;;;;;;;11.65;3.80;;;22.10;99.90;;;;;;4996424;28;20030;-71
2021/06/28 05:59:16;;;;;;;6.50;4.05;;;22.10;99.90;;;;;;5022079;28;20043;-70
2021/06/28 06:01:42;;;;;;;6.93;3.28;;;22.10;99.90;;;;;;5033695;28;20104;-71
2021/06/28 06:04:13;;;;;;;7.90;3.20;;;22.20;99.90;;;;;;5025683;28;20127;-72
2021/06/28 06:06:40;;;;;;;6.07;3.13;;;22.20;99.90;;;;;;5048912;28;20056;-71
2021/06/28 06:09:05;;;;;;;4.97;3.10;;;22.30;99.90;;;;;;5032823;28;20116;-71
2021/06/28 06:11:31;;;;;;;5.40;3.45;;;22.30;99.90;;;;;;5033639;28;20108;-71
2021/06/28 06:13:57;;;;;;;6.80;3.05;;;22.30;99.90;;;;;;5033595;28;20026;-71
2021/06/28 06:16:24;;;;;;;3.72;2.63;;;22.40;99.90;;;;;;5033487;28;20524;-70
2021/06/28 06:18:51;;;;;;;5.82;3.08;;;22.40;99.90;;;;;;5032395;28;20036;-71
2021/06/28 06:21:16;;;;;;;3.47;2.67;;;22.50;99.90;;;;;;5033169;28;20112;-70
2021/06/28 06:23:42;;;;;;;6.88;3.72;;;22.60;99.90;;;;;;5030376;28;20117;-71
2021/06/28 06:26:08;;;;;;;7.32;3.55;;;22.60;99.90;;;;;;5033632;28;20091;-71
2021/06/28 06:28:34;;;;;;;7.90;3.60;;;22.60;99.90;;;;;;5033163;28;20033;-72
2021/06/28 06:31:00;;;;;;;5.57;3.75;;;22.70;99.90;;;;;;5033271;28;20104;-72
2021/06/28 06:33:25;;;;;;;6.20;2.75;;;22.70;99.90;;;;;;5031916;28;20117;-72
2021/06/28 06:35:51;;;;;;;7.03;3.33;;;22.80;99.90;;;;;;5033390;28;20374;-72
2021/06/28 06:38:17;;;;;;;4.72;2.70;;;22.90;99.90;;;;;;5032922;28;20037;-70
2021/06/28 06:40:45;;;;;;;4.60;2.65;;;22.80;99.90;;;;;;5032850;28;20117;-70
2021/06/28 06:43:10;;;;;;;4.55;2.55;;;22.80;99.90;;;;;;5031743;28;20037;-70
2021/06/28 06:45:36;;;;;;;5.35;3.00;;;22.70;99.90;;;;;;5031715;28;20570;-71
2021/06/28 06:48:03;;;;;;;6.05;3.20;;;22.90;99.90;;;;;;5032957;28;20372;-70
2021/06/28 06:50:28;;;;;;;4.20;2.92;;;22.80;99.90;;;;;;5031798;28;20037;-71
2021/06/28 06:52:54;;;;;;;3.85;2.63;;;22.70;99.90;;;;;;5032994;28;20037;-70
2021/06/28 06:55:21;;;;;;;4.95;3.40;;;22.80;99.90;;;;;;5032064;28;20034;-71
2021/06/28 06:57:47;;;;;;;8.10;3.15;;;22.90;99.90;;;;;;5032797;28;20087;-71
2021/06/28 07:00:17;;;;;;;7.63;3.00;;;22.90;99.90;;;;;;5033032;28;20112;-71
2021/06/28 07:02:43;;;;;;;8.05;3.80;;;22.80;99.90;;;;;;5031376;28;20490;-70
2021/06/28 07:05:10;;;;;;;5.38;3.28;;;23.00;99.90;;;;;;5032390;28;20041;-71
2021/06/28 07:07:37;;;;;;;6.95;3.42;;;23.00;99.90;;;;;;5032563;28;20418;-71
2021/06/28 07:10:05;;;;;;;5.10;3.47;;;23.10;99.90;;;;;;5032968;28;20021;-71
2021/06/28 07:12:31;;;;;;;5.57;3.97;;;23.10;99.90;;;;;;5031257;28;20088;-71
2021/06/28 07:15:00;;;;;;;4.90;3.95;;;23.30;99.90;;;;;;5031193;28;20061;-71
2021/06/28 07:17:26;;;;;;;6.15;3.88;;;23.30;99.90;;;;;;5032268;28;20038;-71
2021/06/28 07:19:52;;;;;;;8.07;4.18;;;23.30;99.90;;;;;;5014768;28;20031;-71
2021/06/28 07:22:18;;;;;;;6.53;4.63;;;23.40;99.90;;;;;;5032191;28;20041;-71
2021/06/28 07:24:44;;;;;;;5.68;3.70;;;23.40;99.90;;;;;;5032483;28;20397;-71
2021/06/28 07:27:10;;;;;;;5.40;3.38;;;23.30;99.90;;;;;;5032335;28;20025;-71
2021/06/28 07:29:36;;;;;;;5.80;3.28;;;23.40;99.90;;;;;;5032149;28;20034;-70
2021/06/28 07:32:02;;;;;;;4.47;3.35;;;23.40;99.90;;;;;;5032321;28;20437;-70
2021/06/28 07:34:28;;;;;;;4.78;2.97;;;23.50;99.90;;;;;;5031300;28;20088;-70
2021/06/28 07:36:54;;;;;;;4.40;3.40;;;23.70;99.90;;;;;;5032644;28;20038;-70
2021/06/28 07:39:20;;;;;;;3.72;2.92;;;23.80;99.90;;;;;;5032494;28;20091;-71
2021/06/28 07:41:46;;;;;;;7.85;3.28;;;23.70;99.90;;;;;;5031949;28;20037;-71
2021/06/28 07:44:12;;;;;;;5.78;3.67;;;23.80;99.90;;;;;;5014439;28;20063;-71
2021/06/28 07:46:38;;;;;;;4.75;3.60;;;23.90;99.90;;;;;;5030680;28;20113;-71
2021/06/28 07:49:05;;;;;;;5.47;3.72;;;24.20;99.90;;;;;;5032350;28;20034;-71
2021/06/28 07:51:35;;;;;;;6.63;4.53;;;24.20;99.90;;;;;;5031725;28;20029;-70
2021/06/28 07:54:03;;;;;;;6.53;3.75;;;24.20;99.90;;;;;;5032052;28;20552;-71
2021/06/28 07:56:29;;;;;;;6.78;3.60;;;24.50;99.90;;;;;;5031897;28;20026;-70
2021/06/28 07:58:55;;;;;;;5.70;3.58;;;24.40;99.90;;;;;;5032119;28;20068;-70
2021/06/28 08:01:22;;;;;;;7.38;3.63;;;24.50;99.90;;;;;;5032136;28;20120;-71
2021/06/28 08:03:48;;;;;;;5.18;3.60;;;24.50;99.90;;;;;;5030606;28;20076;-69
2021/06/28 08:06:17;;;;;;;4.53;3.13;;;24.60;99.90;;;;;;5031788;28;20037;-70
2021/06/28 08:08:43;;;;;;;6.22;3.30;;;24.70;99.90;;;;;;5001710;28;20032;-70
2021/06/28 08:11:11;;;;;;;4.80;3.40;;;24.80;99.90;;;;;;5036107;28;20033;-71
2021/06/28 08:13:47;;;;;;;4.75;3.30;;;24.80;99.90;;;;;;5035656;28;20061;-70
2021/06/28 08:16:15;;;;;;;4.90;3.08;;;24.80;99.90;;;;;;5031315;28;20425;-70
2021/06/28 08:18:43;;;;;;;4.50;3.30;;;24.70;99.90;;;;;;5034428;28;20449;-70
2021/06/28 08:21:10;;;;;;;7.28;4.05;;;24.80;99.90;;;;;;5035719;28;20029;-70
2021/06/28 08:23:37;;;;;;;4.32;3.30;;;24.90;99.90;;;;;;5034694;28;20072;-69
2021/06/28 08:26:03;;;;;;;4.50;3.22;;;24.80;99.90;;;;;;5034498;28;20434;-70
2021/06/28 08:28:29;;;;;;;5.07;3.22;;;25.00;99.90;;;;;;5035516;28;20033;-70
2021/06/28 08:30:55;;;;;;;6.38;3.40;;;25.10;99.90;;;;;;5035414;28;20029;-70
2021/06/28 08:33:21;;;;;;;5.43;3.25;;;25.20;99.90;;;;;;5033436;28;20045;-69
2021/06/28 08:35:47;;;;;;;5.75;3.00;;;25.50;99.90;;;;;;5017374;28;20034;-70
2021/06/28 08:38:13;;;;;;;3.30;2.40;;;25.70;99.90;;;;;;5017675;28;20056;-71
2021/06/28 08:40:40;;;;;;;4.57;2.95;;;25.90;99.90;;;;;;5033996;28;20113;-70
2021/06/28 08:43:08;;;;;;;5.53;2.97;;;25.90;99.90;;;;;;5034667;28;20042;-71
2021/06/28 08:45:41;;;;;;;4.25;2.90;;;25.90;99.90;;;;;;5035461;28;20466;-70
2021/06/28 08:48:08;;;;;;;5.82;3.13;;;25.80;99.90;;;;;;5035233;28;20064;-70
2021/06/28 08:50:38;;;;;;;6.18;3.38;;;25.60;99.90;;;;;;5035143;28;20490;-69
2021/06/28 08:53:06;;;;;;;5.20;2.97;;;25.70;99.90;;;;;;5034013;28;20497;-70
2021/06/28 08:55:33;;;;;;;5.95;2.75;;;25.70;99.90;;;;;;5017257;28;20455;-70
2021/06/28 08:57:59;;;;;;;8.32;3.47;;;26.00;99.90;;;;;;5033605;28;20033;-70
2021/06/28 09:00:25;;;;;;;6.07;2.83;;;26.00;99.90;;;;;;5034899;28;20082;-70
2021/06/28 09:03:00;;;;;;;6.13;2.92;;;26.30;99.90;;;;;;5034815;28;20029;-70
2021/06/28 09:05:27;;;;;;;5.90;3.40;;;26.10;99.90;;;;;;5033655;28;20426;-71
2021/06/28 09:08:29;;;;;;;6.25;3.42;;;25.90;99.90;;;;;;5034724;28;20060;-71
2021/06/28 09:10:55;;;;;;;4.35;2.70;;;26.10;99.90;;;;;;4922413;29;20492;-70
2021/06/28 09:13:42;;;;;;;4.30;2.90;;;26.00;99.90;;;;;;5018914;28;20060;-70
2021/06/28 09:16:26;;;;;;;5.10;2.95;;;25.80;99.90;;;;;;5033596;28;20029;-69
2021/06/28 09:19:12;;;;;;;4.05;2.80;;;25.50;99.90;;;;;;5033633;28;20033;-71
2021/06/28 09:21:51;;;;;;;4.05;3.00;;;25.20;99.90;;;;;;5034241;28;20061;-70
2021/06/28 09:24:43;;;;;;;4.03;2.90;;;25.30;99.90;;;;;;5034449;28;20077;-70
2021/06/28 09:27:09;;;;;;;3.78;2.53;;;25.10;99.90;;;;;;5033375;28;20029;-70
2021/06/28 09:29:51;;;;;;;3.95;2.80;;;25.10;99.90;;;;;;5034723;28;20032;-70
2021/06/28 09:32:20;;;;;;;4.20;3.25;;;25.00;99.90;;;;;;5034489;28;20029;-70
2021/06/28 09:34:49;;;;;;;5.10;3.00;;;24.90;99.90;;;;;;5032848;28;20044;-70
2021/06/28 09:37:25;;;;;;;5.70;3.15;;;25.10;99.90;;;;;;5033463;28;20040;-69
2021/06/28 09:39:57;;;;;;;5.63;3.58;;;25.20;99.90;;;;;;5032986;28;20037;-69
2021/06/28 09:42:26;;;;;;;6.95;3.42;;;25.10;99.90;;;;;;5016676;28;20037;-70
2021/06/28 09:44:54;;;;;;;4.10;3.10;;;25.10;99.90;;;;;;5034017;28;20033;-69
2021/06/28 09:47:26;;;;;;;6.53;3.58;;;24.90;99.90;;;;;;5033992;28;20034;-70
2021/06/28 09:50:07;;;;;;;5.50;2.80;;;24.90;99.90;;;;;;5033893;28;20044;-69
2021/06/28 09:52:44;;;;;;;4.78;2.80;;;25.00;99.90;;;;;;5016213;28;20506;-70
2021/06/28 09:55:39;;;;;;;7.10;3.28;;;25.10;99.90;;;;;;5016151;28;20113;-70
2021/06/28 09:58:24;;;;;;;4.82;3.15;;;25.40;99.90;;;;;;5034252;28;20064;-70
2021/06/28 10:01:02;;;;;;;4.28;3.00;;;25.30;99.90;;;;;;5033720;28;20360;-70
2021/06/28 10:03:38;;;;;;;4.95;2.97;;;25.40;99.90;;;;;;4996536;28;20089;-71
2021/06/28 10:06:10;;;;;;;5.75;3.53;;;25.50;99.90;;;;;;5027667;28;20029;-69
2021/06/28 10:08:40;;;;;;;4.85;3.00;;;25.70;99.90;;;;;;5015964;28;20033;-69
2021/06/28 10:11:24;;;;;;;5.43;3.10;;;25.60;99.90;;;;;;5032765;28;20034;-68
2021/06/28 10:13:58;;;;;;;6.00;3.20;;;25.60;99.90;;;;;;5033263;28;20436;-69
2021/06/28 10:16:28;;;;;;;6.00;3.20;;;25.70;99.90;;;;;;5027871;28;20030;-69
2021/06/28 10:18:56;;;;;;;4.50;3.38;;;25.80;99.90;;;;;;5033634;28;20041;-69
2021/06/28 10:21:24;;;;;;;4.20;3.30;;;26.00;99.90;;;;;;5032952;28;20494;-69
2021/06/28 10:23:50;;;;;;;4.90;3.15;;;26.30;99.90;;;;;;5033307;28;20029;-69
2021/06/28 10:26:17;;;;;;;9.38;7.55;;;26.50;99.90;;;;;;5033216;28;20039;-69
2021/06/28 10:28:44;;;;;;;8.75;3.97;;;26.90;99.90;;;;;;5032969;28;20045;-69
2021/06/28 10:31:11;;;;;;;4.70;3.60;;;26.80;99.90;;;;;;5033146;28;20068;-69
2021/06/28 10:33:41;;;;;;;7.78;4.00;;;27.10;99.90;;;;;;5031894;28;20152;-69
2021/06/28 10:36:13;;;;;;;5.45;3.50;;;26.70;99.90;;;;;;5033264;28;20021;-70
2021/06/28 10:38:48;;;;;;;6.60;4.03;;;26.90;99.90;;;;;;5032736;28;20032;-69
2021/06/28 10:41:47;;;;;;;4.47;3.15;;;27.30;99.90;;;;;;5031827;28;20117;-70
2021/06/28 10:44:16;;;;;;;6.45;3.25;;;27.80;99.90;;;;;;5024451;28;20129;-69
2021/06/28 10:46:56;;;;;;;5.72;3.17;;;28.10;99.90;;;;;;5031616;28;20482;-69
2021/06/28 10:49:46;;;;;;;;;;;28.20;99.90;;;;;;5033496;28;20040;-68
2021/06/28 10:52:33;;;;;;;8.70;4.03;;;28.30;99.90;;;;;;5032888;28;19912;-68
2021/06/28 10:54:59;;;;;;;58.58;16.38;;;28.30;99.90;;;;;;5031626;28;20424;-69
2021/06/28 10:57:40;;;;;;;8.25;3.08;;;28.40;99.90;;;;;;5032982;28;20453;-69
2021/06/28 11:00:07;;;;;;;5.38;3.40;;;28.20;99.90;;;;;;5031584;28;20058;-68
2021/06/28 11:02:41;;;;;;;3.92;2.70;;;28.20;99.90;;;;;;5033244;28;20041;-68
2021/06/28 11:05:14;;;;;;;3.70;2.60;;;28.20;99.90;;;;;;5032220;28;20556;-69
2021/06/28 11:07:48;;;;;;;4.97;2.83;;;28.60;99.90;;;;;;5031299;28;20041;-70
2021/06/28 11:10:39;;;;;;;4.93;2.75;;;28.80;99.90;;;;;;5031516;28;20022;-69
2021/06/28 11:13:28;;;;;;;5.53;2.78;;;28.70;99.10;;;;;;5014449;28;20041;-69
2021/06/28 11:15:53;;;;;;;3.97;2.40;;;28.90;99.50;;;;;;5032274;28;20448;-69
2021/06/28 11:18:30;;;;;;;6.93;2.80;;;28.80;98.40;;;;;;5031552;28;20030;-69
2021/06/28 11:20:57;;;;;;;5.13;2.63;;;28.70;97.30;;;;;;5032231;28;20486;-69
2021/06/28 11:23:23;;;;;;;4.47;2.70;;;28.80;96.90;;;;;;5032254;28;20121;-69
2021/06/28 11:25:56;;;;;;;11.20;7.45;;;28.90;98.00;;;;;;5032150;28;20037;-69
2021/06/28 11:28:33;;;;;;;5.22;2.92;;;29.20;97.80;;;;;;5032513;28;20064;-68
2021/06/28 11:31:08;;;;;;;6.85;2.58;;;28.90;97.30;;;;;;5031148;28;20029;-69
2021/06/28 11:33:40;;;;;;;4.00;2.85;;;28.80;97.40;;;;;;5030987;28;20060;-70
2021/06/28 11:36:27;;;;;;;6.85;2.80;;;28.40;97.90;;;;;;5030806;28;20034;-69
2021/06/28 11:38:56;;;;;;;5.72;3.03;;;28.80;97.80;;;;;;5032196;28;20029;-68
2021/06/28 11:41:25;;;;;;;5.25;2.55;;;29.10;97.90;;;;;;5030685;28;20034;-70
2021/06/28 11:43:54;;;;;;;4.78;2.88;;;29.00;96.40;;;;;;5032151;28;20083;-68
2021/06/28 11:46:30;;;;;;;2.83;2.22;;;29.20;97.00;;;;;;5032240;28;20025;-69
2021/06/28 11:49:08;;;;;;;6.03;2.42;;;28.80;97.10;;;;;;5031675;28;20029;-69
2021/06/28 11:51:51;;;;;;;5.60;2.15;;;29.50;96.30;;;;;;5031792;28;20037;-69
2021/06/28 11:54:20;;;;;;;5.05;2.53;;;29.10;95.50;;;;;;5032070;28;20051;-69
2021/06/28 11:56:52;;;;;;;4.30;2.30;;;29.20;95.70;;;;;;5030367;28;20030;-68
2021/06/28 11:59:20;;;;;;;16.20;2.92;;;29.70;95.40;;;;;;5030740;28;20044;-69
2021/06/28 12:01:55;;;;;;;3.80;2.60;;;29.80;96.10;;;;;;5030788;28;20025;-69
2021/06/28 12:04:30;;;;;;;4.53;2.45;;;29.60;95.40;;;;;;5031828;28;20046;-69
2021/06/28 12:06:57;;;;;;;4.18;1.95;;;30.20;94.40;;;;;;5028362;28;20479;-69
2021/06/28 12:09:25;;;;;;;4.10;2.15;;;30.30;94.40;;;;;;5031869;28;20346;-69
2021/06/28 12:12:07;;;;;;;5.00;2.15;;;30.50;93.90;;;;;;5030715;28;20087;-70
2021/06/28 12:14:41;;;;;;;3.15;2.20;;;30.30;93.90;;;;;;5031963;28;20031;-69
2021/06/28 12:17:15;;;;;;;2.88;1.90;;;30.40;93.50;;;;;;5031694;28;20037;-69
2021/06/28 12:19:55;;;;;;;3.95;1.70;;;30.40;92.60;;;;;;5030899;28;20030;-69
2021/06/28 12:22:28;;;;;;;6.20;2.17;;;30.80;92.70;;;;;;5030511;28;20624;-68
2021/06/28 12:25:02;;;;;;;3.95;2.20;;;30.70;92.30;;;;;;5030752;28;20504;-69
2021/06/28 12:27:33;;;;;;;2.88;1.95;;;30.70;92.70;;;;;;5031545;28;20151;-70
2021/06/28 12:30:02;;;;;;;2.83;2.10;;;31.10;92.00;;;;;;5031695;28;20044;-68
2021/06/28 12:32:33;;;;;;;3.78;2.00;;;31.30;91.40;;;;;;5030549;28;20033;-69
2021/06/28 12:35:07;;;;;;;3.28;1.88;;;31.00;92.70;;;;;;5031650;28;20183;-69
2021/06/28 12:37:39;;;;;;;4.63;2.30;;;31.00;91.60;;;;;;5031815;28;20032;-70
2021/06/28 12:40:20;;;;;;;3.30;2.20;;;30.90;91.50;;;;;;5030121;28;20086;-69
2021/06/28 12:42:54;;;;;;;3.47;2.22;;;31.10;91.40;;;;;;5031534;28;20122;-69
2021/06/28 12:45:28;;;;;;;4.75;1.83;;;31.00;90.50;;;;;;5031875;28;20037;-68
2021/06/28 12:47:56;;;;;;;2.72;1.83;;;30.80;91.00;;;;;;5031626;28;20030;-69
2021/06/28 12:50:26;;;;;;;4.40;2.28;;;31.30;89.00;;;;;;5030566;28;20172;-69
2021/06/28 12:52:52;;;;;;;4.68;2.35;;;31.50;88.60;;;;;;5031107;28;20036;-68
2021/06/28 12:55:27;;;;;;;2.92;1.95;;;31.20;90.70;;;;;;5034619;28;20041;-68
2021/06/28 12:58:13;;;;;;;2.92;2.00;;;31.70;88.40;;;;;;5035138;28;20037;-68